Time;durP1;ratioP1;P1;durP2;ratioP2;P2;SDS_P1;SDS_P2;PMS_P1;PMS_P2;Temp;Humidity;BMP_temperature;BMP_pressure;BME280_temperature;BME280_humidity;BME280_pressure;Samples;Min_cycle;Max_cycle;Signal;HPM_P1;HPM_P2
2021/06/05 00:00:40;;;;;;;4.72;4.30;;;;;;;;;;5073013;28;20063;-61
2021/06/05 00:03:06;;;;;;;6.07;4.78;;;;;;;;;;5073244;28;20482;-61
2021/06/05 00:05:37;;;;;;;4.93;4.55;;;;;;;;;;5072824;28;20099;-61
2021/06/05 00:08:03;;;;;;;4.72;4.32;;;;;;;;;;5069979;28;20024;-61
2021/06/05 00:10:30;;;;;;;4.93;4.53;;;;;;;;;;5073143;28;20020;-61
2021/06/05 00:12:56;;;;;;;4.70;4.30;;;;;;;;;;5071571;28;20025;-61
2021/06/05 00:15:28;;;;;;;5.07;4.68;;;;;;;;;;5071549;28;20028;-61
2021/06/05 00:17:53;;;;;;;5.03;4.63;;;;;;;;;;5069817;28;20031;-62
2021/06/05 00:20:20;;;;;;;4.32;3.97;;;;;;;;;;5072731;28;20357;-61
2021/06/05 00:22:45;;;;;;;4.88;4.55;;;;;;;;;;5072842;28;20098;-61
2021/06/05 00:25:13;;;;;;;5.95;4.45;;;;;;;;;;5072837;28;20044;-61
2021/06/05 00:27:38;;;;;;;4.78;4.28;;;;;;;;;;5069305;28;20017;-61
2021/06/05 00:30:04;;;;;;;4.47;4.07;;;;;;;;;;5078280;28;20527;-61
2021/06/05 00:32:30;;;;;;;5.05;4.65;;;;;;;;;;5084688;28;20108;-61
2021/06/05 00:34:55;;;;;;;4.78;4.07;;;;;;;;;;5072555;28;20117;-61
2021/06/05 00:37:20;;;;;;;4.03;3.72;;;;;;;;;;5069465;28;20021;-61
2021/06/05 00:39:45;;;;;;;5.03;3.97;;;;;;;;;;5070787;28;20047;-61
2021/06/05 00:42:10;;;;;;;4.45;4.05;;;;;;;;;;5076377;28;20016;-61
2021/06/05 00:44:36;;;;;;;4.55;4.18;;;;;;;;;;5073398;28;20017;-61
2021/06/05 00:47:01;;;;;;;4.43;4.07;;;;;;;;;;5068104;28;20112;-61
2021/06/05 00:49:26;;;;;;;5.18;4.00;;;;;;;;;;5072262;28;20103;-61
2021/06/05 00:51:53;;;;;;;4.55;3.85;;;;;;;;;;5072492;28;20017;-61
2021/06/05 00:54:20;;;;;;;4.38;4.07;;;;;;;;;;5070053;28;20020;-61
2021/06/05 00:56:48;;;;;;;5.55;4.45;;;;;;;;;;5067158;28;20146;-60
2021/06/05 00:59:13;;;;;;;4.28;3.88;;;;;;;;;;5072200;28;20009;-60
2021/06/05 01:01:39;;;;;;;4.50;3.90;;;;;;;;;;5072087;28;20040;-60
2021/06/05 01:04:04;;;;;;;4.72;4.20;;;;;;;;;;5071741;28;20392;-60
2021/06/05 01:06:48;;;;;;;4.50;4.10;;;;;;;;;;5071441;28;20460;-61
2021/06/05 01:09:16;;;;;;;4.47;4.13;;;;;;;;;;5071725;28;20013;-61
2021/06/05 01:11:41;;;;;;;4.38;3.92;;;;;;;;;;5071956;28;20021;-61
2021/06/05 01:14:16;;;;;;;4.87;4.47;;;;;;;;;;5071978;28;20031;-61
2021/06/05 01:16:43;;;;;;;4.45;4.05;;;;;;;;;;5070320;28;20683;-61
2021/06/05 01:19:11;;;;;;;4.25;3.85;;;;;;;;;;5071169;28;20017;-61
2021/06/05 01:21:36;;;;;;;4.25;3.85;;;;;;;;;;5071879;28;20514;-61
2021/06/05 01:24:26;;;;;;;4.03;3.72;;;;;;;;;;5070656;28;20063;-61
2021/06/05 01:26:55;;;;;;;4.32;3.75;;;;;;;;;;5069015;28;20115;-61
2021/06/05 01:29:33;;;;;;;4.75;4.32;;;;;;;;;;5070721;28;20019;-61
2021/06/05 01:31:59;;;;;;;4.65;4.13;;;;;;;;;;5074768;28;20163;-61
2021/06/05 01:34:26;;;;;;;4.97;4.35;;;;;;;;;;5071373;28;20027;-61
2021/06/05 01:36:53;;;;;;;4.97;4.47;;;;;;;;;;5067517;28;20311;-61
2021/06/05 01:39:22;;;;;;;4.30;4.00;;;;;;;;;;5071587;28;20041;-62
2021/06/05 01:41:49;;;;;;;4.00;3.70;;;;;;;;;;5072172;28;20479;-61
2021/06/05 01:44:15;;;;;;;4.35;3.95;;;;;;;;;;5083967;28;20028;-61
2021/06/05 01:46:42;;;;;;;4.60;4.20;;;;;;;;;;5068433;28;20382;-61
2021/06/05 01:49:08;;;;;;;4.40;3.95;;;;;;;;;;5071459;28;20031;-61
2021/06/05 01:51:35;;;;;;;4.10;3.70;;;;;;;;;;5069919;28;20483;-61
2021/06/05 01:54:09;;;;;;;4.45;4.15;;;;;;;;;;5071887;28;20438;-61
2021/06/05 01:56:36;;;;;;;4.40;3.95;;;;;;;;;;5070202;28;20027;-61
2021/06/05 01:59:02;;;;;;;4.75;4.35;;;;;;;;;;5069912;28;20620;-61
2021/06/05 02:01:27;;;;;;;5.25;4.72;;;;;;;;;;5070059;28;20036;-61
2021/06/05 02:03:53;;;;;;;7.00;4.60;;;;;;;;;;5071762;28;20016;-61
2021/06/05 02:06:19;;;;;;;4.93;4.43;;;;;;;;;;5071610;28;20016;-62
2021/06/05 02:08:44;;;;;;;6.68;4.80;;;;;;;;;;5067050;28;20024;-61
2021/06/05 02:11:14;;;;;;;5.85;4.55;;;;;;;;;;5069845;28;20105;-60
2021/06/05 02:13:45;;;;;;;4.80;4.50;;;;;;;;;;5071735;28;20024;-60
2021/06/05 02:16:16;;;;;;;5.47;4.40;;;;;;;;;;5075391;28;20012;-61
2021/06/05 02:18:44;;;;;;;4.70;4.30;;;;;;;;;;5072336;28;20025;-61
2021/06/05 02:21:12;;;;;;;4.80;4.40;;;;;;;;;;5074809;28;20033;-61
2021/06/05 02:23:40;;;;;;;5.47;4.57;;;;;;;;;;5070239;28;20418;-61
2021/06/05 02:26:06;;;;;;;4.72;4.38;;;;;;;;;;5074640;28;20020;-61
2021/06/05 02:28:31;;;;;;;4.68;4.30;;;;;;;;;;5071910;28;20025;-61
2021/06/05 02:30:58;;;;;;;4.93;4.63;;;;;;;;;;5074953;28;20028;-61
2021/06/05 02:33:23;;;;;;;5.05;4.65;;;;;;;;;;5074740;28;20475;-61
2021/06/05 02:35:49;;;;;;;5.57;5.07;;;;;;;;;;5073683;28;20031;-61
2021/06/05 02:38:17;;;;;;;6.22;5.40;;;;;;;;;;5071811;28;20021;-61
2021/06/05 02:40:43;;;;;;;5.85;5.35;;;;;;;;;;5073804;28;20060;-61
2021/06/05 02:43:11;;;;;;;5.63;5.10;;;;;;;;;;5067851;28;20021;-61
2021/06/05 02:45:42;;;;;;;5.70;5.07;;;;;;;;;;5074307;28;20020;-61
2021/06/05 02:48:08;;;;;;;6.13;5.63;;;;;;;;;;5070527;28;20044;-61
2021/06/05 02:50:39;;;;;;;6.32;5.72;;;;;;;;;;5074469;28;20070;-61
2021/06/05 02:53:05;;;;;;;5.53;5.07;;;;;;;;;;5074596;28;20431;-61
2021/06/05 02:55:31;;;;;;;6.00;5.45;;;;;;;;;;5071854;28;20020;-61
2021/06/05 02:57:56;;;;;;;5.55;5.05;;;;;;;;;;5071500;28;20388;-61
2021/06/05 03:00:24;;;;;;;5.93;5.32;;;;;;;;;;5074409;28;20482;-61
2021/06/05 03:02:50;;;;;;;5.72;5.22;;;;;;;;;;5074558;28;20027;-62
2021/06/05 03:05:15;;;;;;;6.30;5.25;;;;;;;;;;5074361;28;20008;-61
2021/06/05 03:07:40;;;;;;;6.22;5.45;;;;;;;;;;5070923;28;20506;-61
2021/06/05 03:10:06;;;;;;;5.90;5.30;;;;;;;;;;5074177;28;20023;-61
2021/06/05 03:12:31;;;;;;;5.07;4.68;;;;;;;;;;5073665;28;20024;-61
2021/06/05 03:14:57;;;;;;;6.75;4.82;;;;;;;;;;5074362;28;20164;-61
2021/06/05 03:17:22;;;;;;;5.57;4.75;;;;;;;;;;5071004;28;20500;-61
2021/06/05 03:19:47;;;;;;;5.63;5.13;;;;;;;;;;5073904;28;20027;-61
2021/06/05 03:22:13;;;;;;;5.78;5.28;;;;;;;;;;5072730;28;20016;-61
2021/06/05 03:24:38;;;;;;;5.70;5.20;;;;;;;;;;5073857;28;20020;-61
2021/06/05 03:27:04;;;;;;;5.25;4.78;;;;;;;;;;5069598;28;20044;-61
2021/06/05 03:29:29;;;;;;;5.32;4.82;;;;;;;;;;5081124;28;20019;-62
2021/06/05 03:31:55;;;;;;;5.80;4.63;;;;;;;;;;5081078;28;20027;-61
2021/06/05 03:34:21;;;;;;;5.30;4.90;;;;;;;;;;5092732;28;20024;-61
2021/06/05 03:36:46;;;;;;;4.93;4.53;;;;;;;;;;5079822;28;20334;-61
2021/06/05 03:39:11;;;;;;;5.20;4.78;;;;;;;;;;5072825;28;20127;-61
2021/06/05 03:41:37;;;;;;;5.00;4.60;;;;;;;;;;5073324;28;20039;-61
2021/06/05 03:44:02;;;;;;;4.75;4.45;;;;;;;;;;5074839;28;20383;-61
2021/06/05 03:46:28;;;;;;;4.70;4.30;;;;;;;;;;5072882;28;20025;-61
2021/06/05 03:48:53;;;;;;;5.00;4.60;;;;;;;;;;5070744;28;20024;-61
2021/06/05 03:51:19;;;;;;;4.70;4.25;;;;;;;;;;5073320;28;20024;-62
2021/06/05 03:53:44;;;;;;;4.65;4.25;;;;;;;;;;5073286;28;20031;-61
2021/06/05 03:56:09;;;;;;;4.63;4.05;;;;;;;;;;5072860;28;20033;-61
2021/06/05 03:58:40;;;;;;;16.33;4.70;;;;;;;;;;5070201;28;20054;-62
2021/06/05 04:01:09;;;;;;;4.30;3.85;;;;;;;;;;5072986;28;20029;-61
2021/06/05 04:03:35;;;;;;;4.20;3.90;;;;;;;;;;5072407;28;20074;-62
2021/06/05 04:06:00;;;;;;;5.40;4.22;;;;;;;;;;5071655;28;20095;-61
2021/06/05 04:08:25;;;;;;;4.28;3.92;;;;;;;;;;5070332;28;20108;-61
2021/06/05 04:10:51;;;;;;;4.75;4.45;;;;;;;;;;5072667;28;20099;-61
2021/06/05 04:13:16;;;;;;;5.63;4.78;;;;;;;;;;5072742;28;20078;-61
2021/06/05 04:15:41;;;;;;;4.85;4.45;;;;;;;;;;5072666;28;20439;-61
2021/06/05 04:18:14;;;;;;;5.45;5.03;;;;;;;;;;5069997;28;20016;-61
2021/06/05 04:20:40;;;;;;;5.70;5.20;;;;;;;;;;5072137;28;20495;-61
2021/06/05 04:23:06;;;;;;;6.22;5.50;;;;;;;;;;5072498;28;20025;-61
2021/06/05 04:25:31;;;;;;;5.60;5.10;;;;;;;;;;5072293;28;20016;-61
2021/06/05 04:27:56;;;;;;;5.78;5.20;;;;;;;;;;5069853;28;20422;-61
2021/06/05 04:30:23;;;;;;;5.32;4.93;;;;;;;;;;5072938;28;20418;-61
2021/06/05 04:32:48;;;;;;;5.45;5.00;;;;;;;;;;5076943;28;20274;-61
2021/06/05 04:35:14;;;;;;;5.32;4.85;;;;;;;;;;5079681;28;20055;-61
2021/06/05 04:37:39;;;;;;;5.00;4.53;;;;;;;;;;5068017;28;20081;-61
2021/06/05 04:40:05;;;;;;;6.13;5.40;;;;;;;;;;5071984;28;20039;-61
2021/06/05 04:42:31;;;;;;;5.28;4.88;;;;;;;;;;5072751;28;20023;-61
2021/06/05 04:44:56;;;;;;;5.80;4.82;;;;;;;;;;5072283;28;20016;-61
2021/06/05 04:47:21;;;;;;;7.75;4.85;;;;;;;;;;5068492;28;20103;-61
2021/06/05 04:49:47;;;;;;;6.18;5.20;;;;;;;;;;5070797;28;20024;-61
2021/06/05 04:52:12;;;;;;;5.68;5.28;;;;;;;;;;5071971;28;20493;-61
2021/06/05 04:54:37;;;;;;;6.00;5.50;;;;;;;;;;5072169;28;20017;-61
2021/06/05 04:57:03;;;;;;;6.10;5.50;;;;;;;;;;5060404;28;20028;-61
2021/06/05 04:59:28;;;;;;;6.55;5.35;;;;;;;;;;5055145;28;20013;-61
2021/06/05 05:01:53;;;;;;;6.57;5.97;;;;;;;;;;5072708;28;20032;-61
2021/06/05 05:04:19;;;;;;;5.68;5.18;;;;;;;;;;5070525;28;20024;-61
2021/06/05 05:06:44;;;;;;;6.90;6.30;;;;;;;;;;5069801;28;20056;-61
2021/06/05 05:09:11;;;;;;;6.32;5.72;;;;;;;;;;5071912;28;20012;-61
2021/06/05 05:11:36;;;;;;;8.38;5.47;;;;;;;;;;5071617;28;20031;-62
2021/06/05 05:14:02;;;;;;;5.88;5.38;;;;;;;;;;5071942;28;20028;-62
2021/06/05 05:16:27;;;;;;;6.60;5.45;;;;;;;;;;5071948;28;20044;-61
2021/06/05 05:18:53;;;;;;;5.45;4.90;;;;;;;;;;5068105;28;20027;-60
2021/06/05 05:21:19;;;;;;;5.35;4.38;;;;;;;;;;5071638;28;20371;-60
2021/06/05 05:23:44;;;;;;;4.18;3.88;;;;;;;;;;5071327;28;20009;-60
2021/06/05 05:26:11;;;;;;;4.32;4.03;;;;;;;;;;5070649;28;20025;-61
2021/06/05 05:28:36;;;;;;;8.82;4.65;;;;;;;;;;5068625;28;20025;-61
2021/06/05 05:31:03;;;;;;;3.70;3.35;;;;;;;;;;5071816;28;20017;-61
2021/06/05 05:33:29;;;;;;;3.88;3.20;;;;;;;;;;5071331;28;20078;-61
2021/06/05 05:35:55;;;;;;;4.30;4.00;;;;;;;;;;5070671;28;20029;-61
2021/06/05 05:38:21;;;;;;;4.47;4.07;;;;;;;;;;5068698;28;20025;-61
2021/06/05 05:40:47;;;;;;;3.85;3.55;;;;;;;;;;5071355;28;20617;-61
2021/06/05 05:43:12;;;;;;;6.10;3.88;;;;;;;;;;5074484;28;20021;-61
2021/06/05 05:45:37;;;;;;;4.13;3.83;;;;;;;;;;5070902;28;20515;-61
2021/06/05 05:48:04;;;;;;;3.75;3.45;;;;;;;;;;5067205;28;20016;-61
2021/06/05 05:50:30;;;;;;;3.97;3.70;;;;;;;;;;5107941;28;20043;-61
2021/06/05 05:52:56;;;;;;;3.30;3.10;;;;;;;;;;5071688;28;20032;-61
2021/06/05 05:55:21;;;;;;;4.05;3.28;;;;;;;;;;5075486;28;20029;-61
2021/06/05 05:57:47;;;;;;;3.30;3.10;;;;;;;;;;5071446;28;20032;-61
2021/06/05 06:00:15;;;;;;;3.67;3.38;;;;;;;;;;5055586;28;20099;-61
2021/06/05 06:02:40;;;;;;;3.83;3.47;;;;;;;;;;5070594;28;20035;-62
2021/06/05 06:05:06;;;;;;;3.83;3.50;;;;;;;;;;5064502;28;20020;-62
2021/06/05 06:07:31;;;;;;;3.72;3.50;;;;;;;;;;5054279;28;20028;-62
2021/06/05 06:09:56;;;;;;;4.15;3.83;;;;;;;;;;5075258;28;20103;-62
2021/06/05 06:12:22;;;;;;;4.53;3.45;;;;;;;;;;5075071;28;20104;-62
2021/06/05 06:14:47;;;;;;;4.15;3.78;;;;;;;;;;5074803;28;20039;-62
2021/06/05 06:17:12;;;;;;;5.65;3.45;;;;;;;;;;5066222;28;20499;-62
2021/06/05 06:19:38;;;;;;;5.07;3.80;;;;;;;;;;5107572;28;20027;-62
2021/06/05 06:22:04;;;;;;;3.60;3.30;;;;;;;;;;5072533;28;20451;-62
2021/06/05 06:24:29;;;;;;;3.40;3.20;;;;;;;;;;5070294;28;20361;-62
2021/06/05 06:26:55;;;;;;;3.15;2.95;;;;;;;;;;5062977;28;20019;-62
2021/06/05 06:29:27;;;;;;;3.65;3.35;;;;;;;;;;5107449;28;20027;-62
2021/06/05 06:31:53;;;;;;;3.40;3.20;;;;;;;;;;5061302;28;20507;-61
2021/06/05 06:34:18;;;;;;;3.38;3.08;;;;;;;;;;5089080;28;20044;-62
2021/06/05 06:36:43;;;;;;;3.40;3.10;;;;;;;;;;5072200;28;20483;-62
2021/06/05 06:39:09;;;;;;;3.70;3.33;;;;;;;;;;5106081;28;20395;-62
2021/06/05 06:41:35;;;;;;;3.58;3.28;;;;;;;;;;5074298;28;20032;-62
2021/06/05 06:44:02;;;;;;;4.05;3.38;;;;;;;;;;5084759;28;20024;-62
2021/06/05 06:46:29;;;;;;;3.72;3.28;;;;;;;;;;5074280;28;20017;-62
2021/06/05 06:48:56;;;;;;;3.78;3.47;;;;;;;;;;5071126;28;20021;-62
2021/06/05 06:51:21;;;;;;;3.60;3.30;;;;;;;;;;5071896;28;20025;-62
2021/06/05 06:53:47;;;;;;;3.47;3.28;;;;;;;;;;5074498;28;20388;-62
2021/06/05 06:56:12;;;;;;;3.35;3.15;;;;;;;;;;5072763;28;20020;-62
2021/06/05 06:58:38;;;;;;;3.70;3.40;;;;;;;;;;5069412;28;20020;-62
2021/06/05 07:01:04;;;;;;;3.47;3.17;;;;;;;;;;5074095;28;20025;-62
2021/06/05 07:03:29;;;;;;;3.75;3.42;;;;;;;;;;5073980;28;20017;-62
2021/06/05 07:05:55;;;;;;;3.42;3.03;;;;;;;;;;5105814;28;20498;-62
2021/06/05 07:08:22;;;;;;;4.53;3.20;;;;;;;;;;5060017;28;20016;-62
2021/06/05 07:10:52;;;;;;;3.30;3.00;;;;;;;;;;5073059;28;20293;-63
2021/06/05 07:13:17;;;;;;;3.15;2.85;;;;;;;;;;5072766;28;20596;-62
2021/06/05 07:15:43;;;;;;;3.10;2.80;;;;;;;;;;5074020;28;20028;-62
2021/06/05 07:18:09;;;;;;;3.20;2.90;;;;;;;;;;5064844;28;20142;-62
2021/06/05 07:20:34;;;;;;;3.20;3.00;;;;;;;;;;5071939;28;20040;-63
2021/06/05 07:23:00;;;;;;;3.22;2.90;;;;;;;;;;5072897;28;20021;-62
2021/06/05 07:25:27;;;;;;;2.80;2.60;;;;;;;;;;5053918;28;20468;-63
2021/06/05 07:27:52;;;;;;;3.75;2.90;;;;;;;;;;5060087;28;20032;-62
2021/06/05 07:30:18;;;;;;;2.92;2.03;;;;;;;;;;5072264;28;20024;-62
2021/06/05 07:32:43;;;;;;;3.60;2.53;;;;;;;;;;5069099;28;20021;-62
2021/06/05 07:35:09;;;;;;;2.95;2.60;;;;;;;;;;5073585;28;20030;-62
2021/06/05 07:37:34;;;;;;;3.58;2.45;;;;;;;;;;5070191;28;20024;-62
2021/06/05 07:40:06;;;;;;;2.72;2.55;;;;;;;;;;5070893;28;20369;-61
2021/06/05 07:42:31;;;;;;;3.03;2.83;;;;;;;;;;5070530;28;20012;-62
2021/06/05 07:44:56;;;;;;;3.27;2.97;;;;;;;;;;5078767;28;20098;-62
2021/06/05 07:47:21;;;;;;;4.60;3.30;;;;;;;;;;5056716;28;20396;-62
2021/06/05 07:49:47;;;;;;;3.03;2.55;;;;;;;;;;5072963;28;20691;-62
2021/06/05 07:52:13;;;;;;;3.38;3.15;;;;;;;;;;5073501;28;20487;-63
2021/06/05 07:54:38;;;;;;;3.50;2.78;;;;;;;;;;5072863;28;20422;-62
2021/06/05 07:57:04;;;;;;;3.33;3.03;;;;;;;;;;5069939;28;20016;-62
2021/06/05 07:59:29;;;;;;;3.00;2.80;;;;;;;;;;5072936;28;20425;-62
2021/06/05 08:01:55;;;;;;;3.22;2.92;;;;;;;;;;5072590;28;20020;-62
2021/06/05 08:04:20;;;;;;;3.05;2.50;;;;;;;;;;5073132;28;20099;-62
2021/06/05 08:06:46;;;;;;;2.28;2.15;;;;;;;;;;5068988;28;20055;-62
2021/06/05 08:09:11;;;;;;;2.58;2.10;;;;;;;;;;5072614;28;20078;-63
2021/06/05 08:11:37;;;;;;;4.40;2.58;;;;;;;;;;5077039;28;20114;-63
2021/06/05 08:14:03;;;;;;;3.17;2.85;;;;;;;;;;5071173;28;20040;-64
2021/06/05 08:16:28;;;;;;;2.65;2.47;;;;;;;;;;5072798;28;20023;-63
2021/06/05 08:18:53;;;;;;;3.03;2.70;;;;;;;;;;5070394;28;20089;-62
2021/06/05 08:21:20;;;;;;;2.83;2.40;;;;;;;;;;5071271;28;20440;-63
2021/06/05 08:23:46;;;;;;;2.47;2.28;;;;;;;;;;5072507;28;20479;-63
2021/06/05 08:26:12;;;;;;;3.30;3.00;;;;;;;;;;5072345;28;20017;-62
2021/06/05 08:28:38;;;;;;;2.78;2.50;;;;;;;;;;5069211;28;20472;-62
2021/06/05 08:31:06;;;;;;;3.97;3.42;;;;;;;;;;5071561;28;20031;-62
2021/06/05 08:33:31;;;;;;;2.95;2.72;;;;;;;;;;5071769;28;20025;-62
2021/06/05 08:35:57;;;;;;;3.03;2.83;;;;;;;;;;5072243;28;20020;-63
2021/06/05 08:38:25;;;;;;;6.95;3.67;;;;;;;;;;5068085;28;20379;-62
2021/06/05 08:41:01;;;;;;;3.53;3.20;;;;;;;;;;5071855;28;20412;-63
2021/06/05 08:43:27;;;;;;;5.00;3.55;;;;;;;;;;5087047;28;20408;-62
2021/06/05 08:45:52;;;;;;;3.03;2.77;;;;;;;;;;5092778;28;20095;-62
2021/06/05 08:48:19;;;;;;;7.22;3.38;;;;;;;;;;5078100;28;20082;-63
2021/06/05 08:50:45;;;;;;;4.25;3.85;;;;;;;;;;5072108;28;20411;-62
2021/06/05 08:53:21;;;;;;;3.72;3.42;;;;;;;;;;5072217;28;20491;-63
2021/06/05 08:55:53;;;;;;;3.80;3.13;;;;;;;;;;5070859;28;20062;-62
2021/06/05 08:58:30;;;;;;;3.60;3.30;;;;;;;;;;5069025;28;20027;-62
2021/06/05 09:01:00;;;;;;;7.95;3.67;;;;;;;;;;5072148;28;20552;-62
2021/06/05 09:03:27;;;;;;;4.03;3.45;;;;;;;;;;5072385;28;20016;-63
2021/06/05 09:06:00;;;;;;;3.85;3.35;;;;;;;;;;5072348;28;20024;-63
2021/06/05 09:08:26;;;;;;;4.40;3.10;;;;;;;;;;5069109;28;20017;-62
2021/06/05 09:10:56;;;;;;;3.80;2.72;;;;;;;;;;5071739;28;20503;-62
2021/06/05 09:13:21;;;;;;;3.22;2.85;;;;;;;;;;5072026;28;20024;-62
2021/06/05 09:15:46;;;;;;;6.25;3.40;;;;;;;;;;5072068;28;20032;-63
2021/06/05 09:18:12;;;;;;;4.38;3.30;;;;;;;;;;5068798;28;20420;-63
2021/06/05 09:20:38;;;;;;;4.63;2.40;;;;;;;;;;5070107;28;20024;-63
2021/06/05 09:23:23;;;;;;;3.10;2.90;;;;;;;;;;5071489;28;20028;-62
2021/06/05 09:25:49;;;;;;;2.63;2.42;;;;;;;;;;5075111;28;20033;-62
2021/06/05 09:28:24;;;;;;;3.75;2.55;;;;;;;;;;5072965;28;20032;-63
2021/06/05 09:30:52;;;;;;;4.13;3.00;;;;;;;;;;5074537;28;20091;-63
2021/06/05 09:33:29;;;;;;;4.22;3.75;;;;;;;;;;5071066;28;20029;-63
2021/06/05 09:36:11;;;;;;;3.47;3.28;;;;;;;;;;5076522;28;20372;-63
2021/06/05 09:38:38;;;;;;;4.20;3.13;;;;;;;;;;5072289;28;20479;-62
2021/06/05 09:41:07;;;;;;;3.58;3.28;;;;;;;;;;5075359;28;20033;-63
2021/06/05 09:43:34;;;;;;;3.25;3.03;;;;;;;;;;5091068;28;20031;-63
2021/06/05 09:46:02;;;;;;;3.85;3.50;;;;;;;;;;5096066;28;20019;-63
2021/06/05 09:48:28;;;;;;;4.68;4.28;;;;;;;;;;5087745;28;20516;-62
2021/06/05 09:50:55;;;;;;;4.82;4.43;;;;;;;;;;5096073;28;20024;-63
2021/06/05 09:53:28;;;;;;;4.30;3.90;;;;;;;;;;5075213;28;20025;-63
2021/06/05 09:55:53;;;;;;;5.03;4.70;;;;;;;;;;5074607;28;20023;-63
2021/06/05 09:58:34;;;;;;;5.70;5.30;;;;;;;;;;5072333;28;20492;-63
2021/06/05 10:01:32;;;;;;;6.70;5.90;;;;;;;;;;5073981;28;20028;-63
2021/06/05 10:04:10;;;;;;;5.63;5.22;;;;;;;;;;5043445;28;20044;-63
2021/06/05 10:06:41;;;;;;;4.75;4.35;;;;;;;;;;5054293;28;20017;-63
2021/06/05 10:09:18;;;;;;;5.07;4.68;;;;;;;;;;5054143;28;20018;-63
2021/06/05 10:11:44;;;;;;;6.28;5.68;;;;;;;;;;5073604;28;20052;-63
2021/06/05 10:14:12;;;;;;;5.18;4.70;;;;;;;;;;5075177;28;20408;-63
2021/06/05 10:16:39;;;;;;;4.03;3.63;;;;;;;;;;5072464;28;20052;-63
2021/06/05 10:19:08;;;;;;;5.13;4.82;;;;;;;;;;5074214;28;20036;-63
2021/06/05 10:21:38;;;;;;;4.90;4.60;;;;;;;;;;5073158;28;20067;-63
2021/06/05 10:24:17;;;;;;;3.50;3.30;;;;;;;;;;5073567;28;20020;-63
2021/06/05 10:26:43;;;;;;;4.82;4.00;;;;;;;;;;5051580;28;20031;-63
2021/06/05 10:29:27;;;;;;;3.63;3.40;;;;;;;;;;5066973;28;20023;-63
2021/06/05 10:31:54;;;;;;;4.22;3.83;;;;;;;;;;5075047;28;20078;-63
2021/06/05 10:34:26;;;;;;;3.40;3.10;;;;;;;;;;5074590;28;20016;-63
2021/06/05 10:36:52;;;;;;;4.30;3.90;;;;;;;;;;5070820;28;20108;-63
2021/06/05 10:39:20;;;;;;;3.10;2.80;;;;;;;;;;5074253;28;20048;-63
2021/06/05 10:41:54;;;;;;;3.10;2.90;;;;;;;;;;5074785;28;20077;-63
2021/06/05 10:44:19;;;;;;;3.85;3.00;;;;;;;;;;5076815;28;20380;-63
2021/06/05 10:46:51;;;;;;;3.45;2.80;;;;;;;;;;5072427;28;20031;-64
2021/06/05 10:49:35;;;;;;;3.58;3.17;;;;;;;;;;5082882;28;20107;-63
2021/06/05 10:52:09;;;;;;;2.80;2.60;;;;;;;;;;5087079;28;20459;-63
2021/06/05 10:54:37;;;;;;;2.80;2.60;;;;;;;;;;5074376;28;20028;-63
2021/06/05 10:57:17;;;;;;;5.28;2.67;;;;;;;;;;5071282;28;20263;-63
2021/06/05 10:59:47;;;;;;;2.97;2.75;;;;;;;;;;5074328;28;20059;-63
2021/06/05 11:02:31;;;;;;;7.05;3.28;;;;;;;;;;5074075;28;20036;-63
2021/06/05 11:04:57;;;;;;;3.67;3.42;;;;;;;;;;5074560;28;20016;-63
2021/06/05 11:07:26;;;;;;;4.72;4.30;;;;;;;;;;5070239;28;20070;-63
2021/06/05 11:09:53;;;;;;;3.88;3.40;;;;;;;;;;5073089;28;20490;-64
2021/06/05 11:12:18;;;;;;;3.42;2.35;;;;;;;;;;5073722;28;20027;-63
2021/06/05 11:14:44;;;;;;;3.13;3.03;;;;;;;;;;5072335;28;20104;-63
2021/06/05 11:17:18;;;;;;;4.10;3.40;;;;;;;;;;5071144;28;20524;-63
2021/06/05 11:19:50;;;;;;;3.85;2.65;;;;;;;;;;5072805;28;20020;-64
2021/06/05 11:22:17;;;;;;;3.10;2.88;;;;;;;;;;5073528;28;20020;-64
2021/06/05 11:24:44;;;;;;;2.60;2.40;;;;;;;;;;5072717;28;20027;-64
2021/06/05 11:27:11;;;;;;;3.90;3.28;;;;;;;;;;5070838;28;20070;-64
2021/06/05 11:29:36;;;;;;;5.13;3.50;;;;;;;;;;5072498;28;20017;-65
2021/06/05 11:32:21;;;;;;;3.13;2.90;;;;;;;;;;5073224;28;20400;-64
2021/06/05 11:34:52;;;;;;;3.15;2.85;;;;;;;;;;5073636;28;20286;-65
2021/06/05 11:37:17;;;;;;;5.63;3.00;;;;;;;;;;5069530;28;20036;-65
2021/06/05 11:39:43;;;;;;;3.23;2.93;;;;;;;;;;5073484;28;20412;-65
2021/06/05 11:42:21;;;;;;;3.25;3.03;;;;;;;;;;5075243;28;20479;-65
2021/06/05 11:44:59;;;;;;;2.80;2.60;;;;;;;;;;5082384;28;20257;-65
2021/06/05 11:47:24;;;;;;;3.05;2.72;;;;;;;;;;5064228;28;20036;-64
2021/06/05 11:49:51;;;;;;;2.50;2.30;;;;;;;;;;5066793;28;20380;-65
2021/06/05 11:52:25;;;;;;;3.60;2.65;;;;;;;;;;5071865;28;20073;-65
2021/06/05 11:54:51;;;;;;;3.10;2.72;;;;;;;;;;5072019;28;20434;-65
2021/06/05 11:57:43;;;;;;;3.05;2.85;;;;;;;;;;5068283;28;20092;-65
2021/06/05 12:00:23;;;;;;;3.63;2.90;;;;;;;;;;5072305;28;20376;-65
2021/06/05 12:02:57;;;;;;;2.85;2.65;;;;;;;;;;5071122;28;20366;-65
2021/06/05 12:05:22;;;;;;;3.28;2.97;;;;;;;;;;5071895;28;20500;-65
2021/06/05 12:07:49;;;;;;;2.97;2.67;;;;;;;;;;5066812;28;20025;-65
2021/06/05 12:10:30;;;;;;;2.83;2.50;;;;;;;;;;5072570;28;20027;-64
2021/06/05 12:12:55;;;;;;;3.10;2.80;;;;;;;;;;5072388;28;20029;-65
2021/06/05 12:15:26;;;;;;;2.88;2.67;;;;;;;;;;5072676;28;20021;-65
2021/06/05 12:17:59;;;;;;;3.30;3.00;;;;;;;;;;5070175;28;20023;-65
2021/06/05 12:20:25;;;;;;;3.25;2.92;;;;;;;;;;5068273;28;20046;-63
2021/06/05 12:23:10;;;;;;;3.03;2.58;;;;;;;;;;5072366;28;20387;-65
2021/06/05 12:25:39;;;;;;;2.95;2.75;;;;;;;;;;5070393;28;20025;-65
2021/06/05 12:28:10;;;;;;;3.85;3.25;;;;;;;;;;5069696;28;20017;-65
2021/06/05 12:30:39;;;;;;;2.65;2.45;;;;;;;;;;5072195;28;20026;-65
2021/06/05 12:33:07;;;;;;;2.83;2.60;;;;;;;;;;5070799;28;20387;-65
2021/06/05 12:35:45;;;;;;;3.30;3.10;;;;;;;;;;5070994;28;20024;-65
2021/06/05 12:38:12;;;;;;;2.85;2.70;;;;;;;;;;5068485;28;20028;-65
2021/06/05 12:40:42;;;;;;;3.15;2.58;;;;;;;;;;5070488;28;20048;-64
2021/06/05 12:43:09;;;;;;;3.10;2.38;;;;;;;;;;5077588;28;20020;-65
2021/06/05 12:45:36;;;;;;;2.97;2.78;;;;;;;;;;5072173;28;20091;-64
2021/06/05 12:48:02;;;;;;;3.10;2.90;;;;;;;;;;5062180;28;20020;-64
2021/06/05 12:50:29;;;;;;;3.47;2.60;;;;;;;;;;5083315;28;20026;-64
2021/06/05 12:52:54;;;;;;;2.78;2.25;;;;;;;;;;5072233;28;20089;-64
2021/06/05 12:55:25;;;;;;;21.02;5.15;;;;;;;;;;5072249;28;20016;-64
2021/06/05 12:57:55;;;;;;;3.20;2.83;;;;;;;;;;5067204;28;20020;-64
2021/06/05 13:00:34;;;;;;;3.80;3.50;;;;;;;;;;5071820;28;20380;-65
2021/06/05 13:03:05;;;;;;;3.80;3.40;;;;;;;;;;5058529;28;20043;-65
2021/06/05 13:05:32;;;;;;;4.15;2.88;;;;;;;;;;5071649;28;20124;-64
2021/06/05 13:08:09;;;;;;;2.60;2.40;;;;;;;;;;5077716;28;20090;-62
2021/06/05 13:10:36;;;;;;;2.25;1.83;;;;;;;;;;5091952;28;20016;-64
2021/06/05 13:13:12;;;;;;;1.70;1.40;;;;;;;;;;5092289;28;20016;-64
2021/06/05 13:15:43;;;;;;;2.83;1.65;;;;;;;;;;5073197;28;20017;-64
2021/06/05 13:18:10;;;;;;;1.70;1.60;;;;;;;;;;5067979;28;20057;-65
2021/06/05 13:20:45;;;;;;;2.05;1.70;;;;;;;;;;5071793;28;20437;-65
2021/06/05 13:23:22;;;;;;;3.78;2.00;;;;;;;;;;5072372;28;20460;-65
2021/06/05 13:25:48;;;;;;;4.00;2.70;;;;;;;;;;5071173;28;20480;-64
2021/06/05 13:28:15;;;;;;;4.32;3.20;;;;;;;;;;5067596;28;20074;-65
2021/06/05 13:30:54;;;;;;;3.85;3.35;;;;;;;;;;5072352;28;20052;-64
2021/06/05 13:33:25;;;;;;;4.95;4.20;;;;;;;;;;5071932;28;20021;-64
2021/06/05 13:35:50;;;;;;;4.53;4.13;;;;;;;;;;5071298;28;20021;-64
2021/06/05 13:38:20;;;;;;;4.43;3.00;;;;;;;;;;5068250;28;20361;-64
2021/06/05 13:40:46;;;;;;;12.95;4.80;;;;;;;;;;5071535;28;20037;-64
2021/06/05 13:43:11;;;;;;;2.80;2.55;;;;;;;;;;5084274;28;20429;-65
2021/06/05 13:45:36;;;;;;;3.78;2.50;;;;;;;;;;5088466;28;20016;-65
2021/06/05 13:48:02;;;;;;;4.22;2.47;;;;;;;;;;5068792;28;20013;-64
2021/06/05 13:50:28;;;;;;;3.00;2.33;;;;;;;;;;5091146;28;20103;-64
2021/06/05 13:53:04;;;;;;;2.22;2.03;;;;;;;;;;5091930;28;20032;-64
2021/06/05 13:55:30;;;;;;;3.35;1.95;;;;;;;;;;5076932;28;20490;-64
2021/06/05 13:57:56;;;;;;;3.42;2.28;;;;;;;;;;5051407;28;20154;-64
2021/06/05 14:00:23;;;;;;;2.83;2.10;;;;;;;;;;5068452;28;20118;-64
2021/06/05 14:02:48;;;;;;;3.75;2.50;;;;;;;;;;5071506;28;20025;-64
2021/06/05 14:05:14;;;;;;;3.72;2.70;;;;;;;;;;5070332;28;20024;-64
2021/06/05 14:07:39;;;;;;;2.60;2.08;;;;;;;;;;5068636;28;20024;-64
2021/06/05 14:10:05;;;;;;;2.65;2.35;;;;;;;;;;5072151;28;20525;-64
2021/06/05 14:12:31;;;;;;;3.40;2.35;;;;;;;;;;5074853;28;20017;-64
2021/06/05 14:14:57;;;;;;;2.92;2.55;;;;;;;;;;5075224;28;20058;-64
2021/06/05 14:17:22;;;;;;;4.45;2.40;;;;;;;;;;5072412;28;20078;-64
2021/06/05 14:19:48;;;;;;;2.35;2.10;;;;;;;;;;5073577;28;20432;-64
2021/06/05 14:22:14;;;;;;;3.83;2.38;;;;;;;;;;5075059;28;20115;-64
2021/06/05 14:24:40;;;;;;;2.58;2.38;;;;;;;;;;5107705;28;20369;-64
2021/06/05 14:27:05;;;;;;;2.80;2.58;;;;;;;;;;5071465;28;20342;-64
2021/06/05 14:29:31;;;;;;;2.90;2.60;;;;;;;;;;5074072;28;20070;-63
2021/06/05 14:31:58;;;;;;;3.03;2.65;;;;;;;;;;5073963;28;20021;-64
2021/06/05 14:34:25;;;;;;;3.92;2.90;;;;;;;;;;5075133;28;20032;-64
2021/06/05 14:36:50;;;;;;;3.00;2.80;;;;;;;;;;5071772;28;20016;-64
2021/06/05 14:39:15;;;;;;;3.20;2.77;;;;;;;;;;5073993;28;20044;-64
2021/06/05 14:42:10;;;;;;;2.50;2.30;;;;;;;;;;5074362;28;20274;-64
2021/06/05 14:44:36;;;;;;;;;;;;;;;;;;5055054;28;20286;-65
2021/06/05 14:47:01;;;;;;;3.38;3.10;;;;;;;;;;5075095;28;19916;-64